Time;durP1;ratioP1;P1;durP2;ratioP2;P2;SDS_P1;SDS_P2;PMS_P1;PMS_P2;Temp;Humidity;BMP_temperature;BMP_pressure;BME280_temperature;BME280_humidity;BME280_pressure;Samples;Min_cycle;Max_cycle;Signal;HPM_P1;HPM_P2
2024/04/11 00:01:18;;;;;;;3.60;3.00;;;13.70;98.80;;;;;;5489362;26;20549;-73
2024/04/11 00:03:50;;;;;;;3.87;3.43;;;13.70;98.90;;;;;;5488445;26;20581;-73
2024/04/11 00:06:16;;;;;;;5.30;3.60;;;13.70;99.00;;;;;;5489306;26;20835;-73
2024/04/11 00:08:44;;;;;;;3.97;3.57;;;13.70;99.00;;;;;;5489040;26;20462;-72
2024/04/11 00:11:13;;;;;;;6.70;3.40;;;13.70;99.00;;;;;;5489020;26;20537;-72
2024/04/11 00:13:42;;;;;;;3.93;3.00;;;13.70;99.00;;;;;;5488614;26;20469;-72
2024/04/11 00:16:09;;;;;;;4.47;4.07;;;13.70;99.00;;;;;;5489148;26;20541;-72
2024/04/11 00:18:39;;;;;;;4.30;3.03;;;13.60;99.00;;;;;;5488539;26;20789;-73
2024/04/11 00:21:05;;;;;;;6.47;3.40;;;13.60;99.00;;;;;;5490966;25;20489;-73
2024/04/11 00:23:34;;;;;;;14.23;3.90;;;13.60;99.00;;;;;;5492550;25;20298;-73
2024/04/11 00:26:00;;;;;;;5.67;3.33;;;13.60;99.10;;;;;;5492794;25;20546;-73
2024/04/11 00:28:31;;;;;;;4.13;3.73;;;13.60;99.20;;;;;;5481402;25;20475;-73
2024/04/11 00:30:57;;;;;;;2.73;2.53;;;13.60;99.30;;;;;;5456614;26;20471;-73
2024/04/11 00:33:26;;;;;;;5.80;3.60;;;13.60;99.30;;;;;;5456465;26;20560;-73
2024/04/11 00:35:52;;;;;;;3.17;2.97;;;13.60;99.40;;;;;;5455654;26;20579;-73
2024/04/11 00:38:21;;;;;;;3.00;2.80;;;13.60;99.40;;;;;;5456297;26;20531;-73
2024/04/11 00:40:53;;;;;;;2.97;2.77;;;13.60;99.50;;;;;;5455605;26;20545;-73
2024/04/11 00:43:22;;;;;;;5.67;3.37;;;13.60;99.50;;;;;;5456058;26;20527;-73
2024/04/11 00:45:50;;;;;;;3.10;2.90;;;13.60;99.50;;;;;;5462147;25;20560;-74
2024/04/11 00:48:21;;;;;;;6.03;3.20;;;13.60;99.60;;;;;;5492477;25;20811;-73
2024/04/11 00:50:50;;;;;;;3.60;3.20;;;13.60;99.60;;;;;;5492096;25;20473;-73
2024/04/11 00:53:19;;;;;;;5.30;3.50;;;13.50;99.60;;;;;;5492520;25;20478;-73
2024/04/11 00:55:45;;;;;;;4.47;3.00;;;13.50;99.60;;;;;;5468872;25;21251;-73
2024/04/11 00:58:15;;;;;;;5.70;4.40;;;13.60;99.50;;;;;;5454976;26;20598;-73
2024/04/11 01:00:42;;;;;;;5.53;3.30;;;13.50;99.40;;;;;;5455475;26;20601;-73
2024/04/11 01:03:13;;;;;;;6.80;3.80;;;13.50;99.40;;;;;;5454148;26;20923;-73
2024/04/11 01:05:39;;;;;;;10.47;4.53;;;13.50;99.50;;;;;;5455705;26;20641;-73
2024/04/11 01:08:09;;;;;;;3.83;3.30;;;13.40;99.50;;;;;;5456040;26;20487;-74
2024/04/11 01:10:37;;;;;;;4.43;3.30;;;13.40;99.50;;;;;;5455325;26;20558;-72
2024/04/11 01:13:07;;;;;;;4.27;3.00;;;13.40;99.60;;;;;;5455782;26;20300;-72
2024/04/11 01:15:34;;;;;;;4.03;3.60;;;13.40;99.60;;;;;;5455109;26;20956;-72
2024/04/11 01:18:03;;;;;;;5.30;3.27;;;13.40;99.70;;;;;;5455991;26;20626;-73
2024/04/11 01:20:32;;;;;;;5.55;4.25;;;13.30;99.70;;;;;;5470281;25;20857;-72
2024/04/11 01:23:03;;;;;;;7.78;3.60;;;13.30;99.70;;;;;;5453219;26;20284;-72
2024/04/11 01:25:29;;;;;;;3.28;2.97;;;13.30;99.80;;;;;;5464391;26;20248;-72
2024/04/11 01:27:59;;;;;;;6.93;3.42;;;13.30;99.80;;;;;;5488238;25;20240;-72
2024/04/11 01:30:26;;;;;;;10.10;5.10;;;13.20;99.80;;;;;;5489708;25;20304;-73
2024/04/11 01:33:00;;;;;;;6.90;3.38;;;13.20;99.80;;;;;;5487208;25;20249;-73
2024/04/11 01:35:28;;;;;;;6.47;3.92;;;13.20;99.90;;;;;;5489283;25;20320;-73
2024/04/11 01:37:57;;;;;;;6.40;4.03;;;13.20;99.90;;;;;;5486619;25;20401;-73
2024/04/11 01:40:29;;;;;;;4.45;3.20;;;13.20;99.90;;;;;;5490502;25;20244;-73
2024/04/11 01:42:58;;;;;;;4.32;3.92;;;13.10;99.90;;;;;;5490318;25;20287;-73
2024/04/11 01:45:26;;;;;;;4.35;3.95;;;13.10;99.90;;;;;;5490750;25;20245;-73
2024/04/11 01:47:55;;;;;;;6.50;2.97;;;13.00;99.90;;;;;;5489111;25;20675;-73
2024/04/11 01:50:21;;;;;;;4.05;3.55;;;13.10;99.90;;;;;;5489252;25;20513;-72
2024/04/11 01:52:50;;;;;;;6.53;3.65;;;13.10;99.90;;;;;;5490148;25;20249;-72
2024/04/11 01:55:16;;;;;;;4.75;3.70;;;13.10;99.90;;;;;;5490755;25;20252;-72
2024/04/11 01:57:48;;;;;;;3.50;3.20;;;13.10;99.90;;;;;;5489848;25;20588;-73
2024/04/11 02:00:14;;;;;;;7.23;4.50;;;13.00;99.90;;;;;;5490466;25;20617;-73
2024/04/11 02:02:43;;;;;;;8.30;4.05;;;13.00;99.90;;;;;;5490060;25;20550;-73
2024/04/11 02:05:14;;;;;;;3.70;3.35;;;13.00;99.90;;;;;;5490471;25;20237;-73
2024/04/11 02:07:43;;;;;;;6.40;4.18;;;13.00;99.90;;;;;;5489904;25;20308;-73
2024/04/11 02:10:10;;;;;;;7.35;3.58;;;13.00;99.90;;;;;;5490316;25;20292;-73
2024/04/11 02:12:39;;;;;;;9.80;4.15;;;13.00;99.90;;;;;;5489924;25;20248;-73
2024/04/11 02:15:10;;;;;;;4.47;3.75;;;13.00;99.90;;;;;;5490323;25;20349;-73
2024/04/11 02:17:38;;;;;;;4.30;3.90;;;13.00;99.90;;;;;;5490160;25;20717;-73
2024/04/11 02:20:10;;;;;;;6.30;3.88;;;13.00;99.90;;;;;;5453664;26;20475;-73
2024/04/11 02:22:40;;;;;;;4.50;4.10;;;13.00;99.90;;;;;;5453650;26;20707;-73
2024/04/11 02:25:07;;;;;;;4.80;3.80;;;13.00;99.90;;;;;;5453028;26;20542;-73
2024/04/11 02:27:39;;;;;;;3.93;3.60;;;13.00;99.90;;;;;;5453881;26;20781;-73
2024/04/11 02:30:10;;;;;;;4.53;4.13;;;13.00;99.90;;;;;;5453008;26;20593;-73
2024/04/11 02:32:41;;;;;;;8.40;3.53;;;13.00;99.90;;;;;;5453450;26;20298;-73
2024/04/11 02:35:09;;;;;;;4.03;3.70;;;13.00;99.90;;;;;;5453275;26;20944;-73
2024/04/11 02:37:40;;;;;;;4.22;3.83;;;13.00;99.90;;;;;;5453395;26;20977;-73
2024/04/11 02:40:07;;;;;;;7.03;4.07;;;13.00;99.90;;;;;;5453307;26;20856;-73
2024/04/11 02:42:37;;;;;;;4.15;3.75;;;13.00;99.90;;;;;;5452422;26;20287;-72
2024/04/11 02:45:04;;;;;;;6.40;4.97;;;13.00;99.90;;;;;;5452458;26;20407;-72
2024/04/11 02:47:36;;;;;;;6.30;4.23;;;13.00;99.90;;;;;;5453109;26;20459;-72
2024/04/11 02:50:02;;;;;;;5.00;4.45;;;13.00;99.90;;;;;;5453022;26;21048;-72
2024/04/11 02:52:30;;;;;;;7.00;4.97;;;13.00;99.90;;;;;;5453150;26;20699;-73
2024/04/11 02:54:56;;;;;;;5.20;4.60;;;12.90;99.90;;;;;;5452764;26;20250;-73
2024/04/11 02:57:26;;;;;;;7.27;4.63;;;12.90;99.90;;;;;;5453086;26;20295;-73
2024/04/11 02:59:53;;;;;;;6.43;4.88;;;12.80;99.90;;;;;;5452524;26;20817;-72
2024/04/11 03:02:23;;;;;;;5.03;4.53;;;12.80;99.90;;;;;;5452846;26;20288;-72
2024/04/11 03:04:52;;;;;;;5.00;4.22;;;12.80;99.90;;;;;;5452481;26;20256;-72
2024/04/11 03:07:23;;;;;;;4.82;4.32;;;12.80;99.90;;;;;;5453210;26;20261;-73
2024/04/11 03:09:53;;;;;;;5.65;4.93;;;12.80;99.90;;;;;;5452690;26;20257;-72
2024/04/11 03:12:22;;;;;;;6.00;4.70;;;12.80;99.90;;;;;;5452737;26;20293;-72
2024/04/11 03:14:49;;;;;;;5.10;4.47;;;12.80;99.90;;;;;;5452592;26;20603;-73
2024/04/11 03:17:17;;;;;;;6.45;4.57;;;12.70;99.90;;;;;;5452711;26;20309;-73
2024/04/11 03:19:43;;;;;;;4.50;4.00;;;12.70;99.90;;;;;;5452907;26;20249;-72
2024/04/11 03:22:15;;;;;;;5.80;4.30;;;12.70;99.90;;;;;;5452194;26;20689;-72
2024/04/11 03:24:42;;;;;;;6.18;5.18;;;12.70;99.90;;;;;;5452621;26;21026;-72
2024/04/11 03:27:13;;;;;;;6.18;4.40;;;12.60;99.90;;;;;;5452067;26;20250;-73
2024/04/11 03:29:42;;;;;;;6.22;5.30;;;12.60;99.90;;;;;;5452459;26;20357;-73
2024/04/11 03:32:11;;;;;;;5.88;5.28;;;12.60;99.90;;;;;;5451973;26;20241;-72
2024/04/11 03:34:37;;;;;;;5.88;5.32;;;12.60;99.90;;;;;;5452771;26;20550;-72
2024/04/11 03:37:07;;;;;;;6.47;5.53;;;12.60;99.90;;;;;;5452192;26;20560;-72
2024/04/11 03:39:38;;;;;;;4.70;4.40;;;12.50;99.90;;;;;;5452493;26;20241;-72
2024/04/11 03:42:07;;;;;;;6.55;5.82;;;12.50;99.90;;;;;;5451578;26;20245;-72
2024/04/11 03:44:36;;;;;;;7.65;5.65;;;12.40;99.90;;;;;;5452239;26;20246;-72
2024/04/11 03:47:08;;;;;;;6.60;6.10;;;12.40;99.90;;;;;;5451902;26;20258;-73
2024/04/11 03:49:37;;;;;;;8.68;6.65;;;12.40;99.90;;;;;;5452320;26;20280;-72
2024/04/11 03:52:06;;;;;;;8.73;7.25;;;12.30;99.90;;;;;;5451887;26;20288;-73
2024/04/11 03:54:35;;;;;;;7.15;6.40;;;12.30;99.90;;;;;;5453310;26;20300;-73
2024/04/11 03:57:04;;;;;;;9.57;7.00;;;12.30;99.90;;;;;;5455461;26;20245;-72
2024/04/11 03:59:33;;;;;;;8.93;7.40;;;12.20;99.90;;;;;;5455538;26;20283;-72
2024/04/11 04:01:59;;;;;;;8.13;7.00;;;12.20;99.90;;;;;;5455258;26;20304;-72
2024/04/11 04:04:28;;;;;;;9.40;8.35;;;12.20;99.90;;;;;;5455736;26;20361;-72
2024/04/11 04:06:54;;;;;;;8.85;7.80;;;12.20;99.90;;;;;;5455005;26;20253;-72
2024/04/11 04:09:23;;;;;;;10.90;7.57;;;12.20;99.90;;;;;;5455931;26;20245;-72
2024/04/11 04:11:51;;;;;;;8.55;7.65;;;12.30;99.90;;;;;;5459741;26;20545;-73
2024/04/11 04:14:20;;;;;;;7.85;7.05;;;12.30;99.90;;;;;;5469481;26;20317;-72
2024/04/11 04:17:16;;;;;;;9.32;8.23;;;12.30;99.90;;;;;;5455048;26;20699;-73
2024/04/11 04:19:58;;;;;;;9.10;7.30;;;12.30;99.90;;;;;;5471085;25;20664;-73
2024/04/11 04:22:36;;;;;;;9.38;6.97;;;12.20;99.90;;;;;;5490712;25;20290;-74
2024/04/11 04:25:19;;;;;;;10.73;7.00;;;12.30;99.90;;;;;;5489761;25;20252;-73
2024/04/11 04:27:47;;;;;;;11.88;7.10;;;12.20;99.90;;;;;;5492113;25;20349;-73
2024/04/11 04:30:16;;;;;;;17.95;9.43;;;12.30;99.90;;;;;;5491563;25;20328;-73
2024/04/11 04:32:44;;;;;;;9.52;8.00;;;12.20;99.90;;;;;;5491214;25;20299;-73
2024/04/11 04:35:11;;;;;;;14.35;8.00;;;12.20;99.90;;;;;;5491748;25;20358;-73
2024/04/11 04:37:40;;;;;;;12.85;8.15;;;12.20;99.90;;;;;;5490214;25;20316;-73
2024/04/11 04:40:07;;;;;;;8.02;7.20;;;12.20;99.90;;;;;;5491283;25;20282;-73
2024/04/11 04:42:41;;;;;;;9.57;7.97;;;12.30;99.90;;;;;;5491578;25;20252;-74
2024/04/11 04:45:09;;;;;;;8.25;7.22;;;12.20;99.90;;;;;;5454643;26;20580;-73
2024/04/11 04:47:40;;;;;;;8.38;7.13;;;12.20;99.90;;;;;;5454828;26;20250;-73
2024/04/11 04:50:07;;;;;;;7.90;7.22;;;12.20;99.90;;;;;;5449699;26;20335;-72
2024/04/11 04:52:35;;;;;;;8.35;6.45;;;12.20;99.90;;;;;;5477954;26;20610;-72
2024/04/11 04:55:01;;;;;;;14.40;8.38;;;12.20;99.90;;;;;;5454517;26;20253;-73
2024/04/11 04:57:31;;;;;;;7.80;7.10;;;12.10;99.90;;;;;;5455319;26;20331;-73
2024/04/11 04:59:57;;;;;;;9.77;6.28;;;12.10;99.90;;;;;;5454200;26;20550;-73
2024/04/11 05:02:26;;;;;;;9.93;7.43;;;12.10;99.90;;;;;;5449442;26;20322;-73
2024/04/11 05:04:55;;;;;;;8.85;6.30;;;12.00;99.90;;;;;;5454552;26;20474;-72
2024/04/11 05:07:26;;;;;;;8.88;7.15;;;12.00;99.90;;;;;;5453469;26;20250;-72
2024/04/11 05:09:53;;;;;;;7.60;6.85;;;12.00;99.90;;;;;;5454430;26;20336;-73
2024/04/11 05:12:25;;;;;;;10.65;7.00;;;12.00;99.90;;;;;;5455080;26;20620;-74
2024/04/11 05:14:52;;;;;;;9.10;8.02;;;12.10;99.90;;;;;;5474026;25;20292;-74
2024/04/11 05:17:21;;;;;;;11.77;8.88;;;12.10;99.90;;;;;;5454883;26;20241;-73
2024/04/11 05:19:57;;;;;;;11.02;7.75;;;12.10;99.90;;;;;;5454166;26;20292;-74
2024/04/11 05:22:26;;;;;;;10.00;8.30;;;12.10;99.90;;;;;;5454534;26;20618;-74
2024/04/11 05:24:52;;;;;;;11.45;9.98;;;12.20;99.90;;;;;;5454212;26;20252;-74
2024/04/11 05:27:21;;;;;;;10.70;8.93;;;12.20;99.90;;;;;;5454437;26;20245;-73
2024/04/11 05:29:47;;;;;;;13.60;8.23;;;12.10;99.90;;;;;;5453943;26;20562;-73
2024/04/11 05:32:16;;;;;;;9.70;6.90;;;12.10;99.90;;;;;;5454546;26;20249;-73
2024/04/11 05:34:42;;;;;;;8.70;6.85;;;12.20;99.90;;;;;;5454031;26;20491;-73
2024/04/11 05:37:14;;;;;;;7.82;6.80;;;12.20;99.90;;;;;;5454107;26;20246;-73
2024/04/11 05:42:27;;;;;;;8.50;7.55;;;12.30;99.90;;;;;;5456654;26;20296;-73
2024/04/11 05:44:54;;;;;;;8.40;7.40;;;12.30;99.90;;;;;;5453831;26;20246;-73
2024/04/11 05:47:22;;;;;;;10.52;7.40;;;12.30;99.90;;;;;;5454171;26;20253;-71
2024/04/11 05:49:48;;;;;;;7.20;6.50;;;12.40;99.90;;;;;;5453644;26;20313;-72
2024/04/11 05:52:21;;;;;;;7.78;7.00;;;12.40;99.90;;;;;;5454371;26;20249;-72
2024/04/11 05:54:49;;;;;;;7.07;6.45;;;12.50;99.90;;;;;;5453692;26;20711;-72
2024/04/11 05:57:18;;;;;;;9.43;7.90;;;12.60;99.90;;;;;;5454355;26;20273;-72
2024/04/11 05:59:45;;;;;;;7.40;6.63;;;12.60;99.90;;;;;;5453384;26;20614;-72
2024/04/11 06:02:13;;;;;;;9.18;7.15;;;12.60;99.90;;;;;;5454083;26;20249;-72
2024/04/11 06:04:41;;;;;;;7.13;5.90;;;12.70;99.90;;;;;;5453705;26;20695;-72
2024/04/11 06:07:09;;;;;;;8.93;8.02;;;12.80;99.90;;;;;;5454055;26;20708;-72
2024/04/11 06:09:39;;;;;;;7.13;6.43;;;12.80;99.90;;;;;;5453936;26;20309;-72
2024/04/11 06:12:08;;;;;;;9.45;8.00;;;12.90;99.90;;;;;;5453372;26;20284;-72
2024/04/11 06:14:34;;;;;;;10.55;9.43;;;12.90;99.90;;;;;;5453653;26;20826;-72
2024/04/11 06:17:03;;;;;;;13.18;6.72;;;12.90;99.90;;;;;;5452950;26;20252;-72
2024/04/11 06:19:29;;;;;;;10.45;6.95;;;13.00;99.90;;;;;;5452676;26;20367;-72
2024/04/11 06:21:59;;;;;;;13.13;10.80;;;13.00;99.90;;;;;;5453470;26;20253;-73
2024/04/11 06:24:25;;;;;;;10.75;7.32;;;13.10;99.90;;;;;;5453703;26;20533;-73
2024/04/11 06:26:56;;;;;;;11.17;8.00;;;13.10;99.90;;;;;;5453211;26;20285;-73
2024/04/11 06:29:24;;;;;;;15.20;9.00;;;13.20;99.90;;;;;;5453383;26;20547;-72
2024/04/11 06:31:53;;;;;;;11.07;8.48;;;13.30;99.90;;;;;;5453238;26;20471;-73
2024/04/11 06:34:19;;;;;;;10.15;7.70;;;13.30;99.90;;;;;;5453642;26;20249;-73
2024/04/11 06:36:49;;;;;;;7.10;5.50;;;13.40;99.90;;;;;;5453213;26;20746;-73
2024/04/11 06:39:17;;;;;;;9.53;7.87;;;13.40;99.90;;;;;;5453515;26;20984;-73
2024/04/11 06:41:45;;;;;;;8.23;7.43;;;13.50;99.90;;;;;;5453041;26;20451;-72
2024/04/11 06:44:16;;;;;;;10.27;6.53;;;13.50;99.90;;;;;;5453420;26;20472;-73
2024/04/11 06:46:49;;;;;;;6.97;5.70;;;13.50;99.90;;;;;;5453093;26;20868;-73
2024/04/11 06:49:15;;;;;;;10.27;6.63;;;13.60;99.90;;;;;;5453007;26;20257;-73
2024/04/11 06:51:47;;;;;;;11.37;7.10;;;13.70;99.90;;;;;;5453171;26;20287;-73
2024/04/11 06:54:14;;;;;;;9.60;6.53;;;13.80;99.90;;;;;;5452423;26;20529;-73
2024/04/11 06:56:45;;;;;;;9.97;6.70;;;13.80;99.90;;;;;;5452985;26;20597;-73
2024/04/11 06:59:17;;;;;;;13.43;6.13;;;13.80;99.90;;;;;;5452475;26;20496;-73
2024/04/11 07:01:48;;;;;;;11.77;8.57;;;13.90;99.90;;;;;;5453364;26;20292;-73
2024/04/11 07:04:14;;;;;;;5.80;5.30;;;14.00;99.90;;;;;;5452945;26;20478;-73
2024/04/11 07:06:42;;;;;;;7.20;6.40;;;14.10;99.90;;;;;;5453029;26;20531;-73
2024/04/11 07:09:11;;;;;;;7.70;5.50;;;14.10;99.90;;;;;;5452663;26;20554;-73
2024/04/11 07:11:42;;;;;;;4.80;4.40;;;14.20;99.90;;;;;;5453162;26;20543;-72
2024/04/11 07:14:15;;;;;;;6.57;4.83;;;14.30;99.70;;;;;;5452374;26;20527;-72
2024/04/11 07:16:52;;;;;;;6.57;5.83;;;14.40;99.60;;;;;;5452614;26;21020;-74
2024/04/11 07:19:18;;;;;;;6.10;5.07;;;14.60;99.70;;;;;;5452712;26;20478;-73
2024/04/11 07:21:48;;;;;;;6.30;5.70;;;14.70;99.40;;;;;;5452695;26;20471;-73
2024/04/11 07:24:14;;;;;;;18.47;10.43;;;14.80;98.90;;;;;;5452286;26;20491;-73
2024/04/11 07:26:42;;;;;;;5.13;4.23;;;14.80;98.80;;;;;;5452986;26;20478;-73
2024/04/11 07:29:08;;;;;;;5.97;4.30;;;14.90;98.40;;;;;;5451415;26;20556;-72
2024/04/11 07:31:39;;;;;;;7.80;5.13;;;15.00;98.40;;;;;;5452824;26;20507;-72
2024/04/11 07:34:08;;;;;;;5.80;4.90;;;15.10;98.40;;;;;;5452288;26;20490;-74
2024/04/11 07:36:39;;;;;;;5.40;4.90;;;15.20;98.00;;;;;;5452464;26;20569;-73
2024/04/11 07:39:08;;;;;;;6.90;5.17;;;15.30;97.70;;;;;;5451993;26;20471;-72
2024/04/11 07:41:47;;;;;;;5.40;4.20;;;15.50;97.40;;;;;;5452538;26;20519;-72
2024/04/11 07:44:17;;;;;;;6.40;4.33;;;15.60;97.20;;;;;;5452220;26;20471;-72
2024/04/11 07:46:46;;;;;;;4.73;3.50;;;15.60;96.40;;;;;;5452258;26;21007;-72
2024/04/11 07:49:15;;;;;;;15.00;5.37;;;15.60;95.90;;;;;;5451625;26;20475;-73
2024/04/11 07:51:44;;;;;;;8.40;4.90;;;15.70;95.10;;;;;;5452558;26;20553;-72
2024/04/11 07:54:13;;;;;;;4.10;3.60;;;15.80;95.30;;;;;;5451810;26;20831;-72
2024/04/11 07:56:42;;;;;;;7.23;3.43;;;15.90;95.10;;;;;;5452102;26;20780;-73
2024/04/11 07:59:11;;;;;;;6.30;4.27;;;15.90;94.20;;;;;;5451435;26;20562;-72
2024/04/11 08:01:41;;;;;;;14.83;5.93;;;15.90;93.80;;;;;;5452175;26;20479;-73
2024/04/11 08:04:10;;;;;;;18.53;13.10;;;16.00;94.30;;;;;;5451275;26;20475;-72
2024/04/11 08:06:43;;;;;;;6.10;3.90;;;16.20;93.60;;;;;;5451911;26;20478;-73
2024/04/11 08:09:09;;;;;;;5.37;3.77;;;16.20;92.80;;;;;;5451402;26;20482;-74
2024/04/11 08:11:38;;;;;;;10.13;7.70;;;16.40;92.70;;;;;;5452038;26;20467;-73
2024/04/11 08:14:05;;;;;;;9.53;6.17;;;16.50;92.60;;;;;;5450789;26;20542;-72
2024/04/11 08:16:34;;;;;;;5.37;2.80;;;16.60;92.60;;;;;;5451632;26;20523;-72
2024/04/11 08:19:04;;;;;;;3.90;2.60;;;16.70;91.30;;;;;;5451219;26;20527;-74
2024/04/11 08:21:30;;;;;;;5.63;4.10;;;16.70;90.60;;;;;;5451687;26;20479;-73
2024/04/11 08:24:03;;;;;;;4.13;3.03;;;16.80;90.80;;;;;;5451909;26;20815;-74
2024/04/11 08:26:29;;;;;;;2.50;2.03;;;16.90;90.50;;;;;;5451477;26;20523;-74
2024/04/11 08:29:00;;;;;;;5.83;2.77;;;16.90;90.60;;;;;;5451561;26;20471;-72
2024/04/11 08:31:27;;;;;;;4.63;2.63;;;17.00;90.30;;;;;;5451308;26;20761;-73
2024/04/11 08:33:58;;;;;;;3.23;2.73;;;17.10;90.20;;;;;;5451620;26;20542;-73
2024/04/11 08:36:24;;;;;;;4.90;2.80;;;17.20;90.20;;;;;;5450887;26;20816;-73
2024/04/11 08:38:55;;;;;;;3.73;1.90;;;17.20;89.10;;;;;;5451866;26;20527;-73
2024/04/11 08:41:25;;;;;;;4.20;2.70;;;17.20;89.10;;;;;;5451769;26;20623;-73
2024/04/11 08:43:56;;;;;;;5.90;3.50;;;17.30;89.90;;;;;;5454838;26;20474;-73
2024/04/11 08:46:22;;;;;;;5.37;3.83;;;17.40;89.90;;;;;;5454650;26;20478;-73
2024/04/11 08:48:52;;;;;;;3.30;2.47;;;17.50;87.60;;;;;;5455088;26;20475;-73
2024/04/11 08:51:20;;;;;;;5.57;2.87;;;17.60;85.60;;;;;;5454578;26;20475;-73
2024/04/11 08:53:49;;;;;;;5.30;3.77;;;17.70;85.00;;;;;;5455656;26;20831;-73
2024/04/11 08:56:17;;;;;;;4.97;3.63;;;17.90;84.50;;;;;;5454231;26;20618;-73
2024/04/11 08:58:49;;;;;;;2.80;2.07;;;18.00;84.50;;;;;;5454909;26;20568;-73
2024/04/11 09:01:19;;;;;;;3.83;2.87;;;18.00;83.80;;;;;;5454495;26;20925;-73
2024/04/11 09:03:48;;;;;;;5.00;2.30;;;18.00;83.00;;;;;;5454831;26;20867;-73
2024/04/11 09:06:18;;;;;;;19.73;11.30;;;18.10;82.70;;;;;;5454479;26;20471;-73
2024/04/11 09:08:49;;;;;;;12.30;8.57;;;18.20;81.10;;;;;;5454970;26;20538;-74
2024/04/11 09:11:16;;;;;;;18.17;13.23;;;18.20;81.00;;;;;;5454424;26;20483;-73
2024/04/11 09:13:48;;;;;;;3.77;1.90;;;18.20;80.30;;;;;;5454653;26;20968;-74
2024/04/11 09:16:21;;;;;;;9.47;6.10;;;18.20;80.30;;;;;;5453819;26;20555;-74
2024/04/11 09:18:49;;;;;;;5.07;2.93;;;18.20;79.90;;;;;;5454728;26;20585;-73
2024/04/11 09:21:17;;;;;;;5.77;4.43;;;18.30;80.40;;;;;;5454296;26;20550;-73
2024/04/11 09:23:48;;;;;;;4.70;4.27;;;18.30;80.50;;;;;;5454551;26;20521;-73
2024/04/11 09:26:14;;;;;;;3.37;2.37;;;18.30;79.30;;;;;;5453951;26;20630;-73
2024/04/11 09:28:43;;;;;;;5.33;3.77;;;18.40;80.00;;;;;;5454689;26;20471;-73
2024/04/11 09:31:11;;;;;;;3.70;2.43;;;18.50;79.60;;;;;;5453930;26;20539;-74
2024/04/11 09:33:42;;;;;;;3.00;2.30;;;18.60;79.70;;;;;;5454559;26;20479;-74
2024/04/11 09:36:11;;;;;;;16.67;10.43;;;18.60;79.90;;;;;;5454366;26;20596;-74
2024/04/11 09:38:41;;;;;;;10.20;6.70;;;18.70;80.00;;;;;;5453892;26;20486;-74
2024/04/11 09:41:11;;;;;;;4.60;1.97;;;18.80;80.00;;;;;;5454241;26;20546;-71
2024/04/11 09:43:42;;;;;;;3.37;2.07;;;18.80;79.70;;;;;;5453828;26;20495;-73
2024/04/11 09:46:08;;;;;;;3.40;2.67;;;18.90;78.90;;;;;;5454232;26;20831;-73
2024/04/11 09:48:41;;;;;;;8.40;2.87;;;19.00;77.60;;;;;;5453770;26;20523;-74
2024/04/11 09:51:10;;;;;;;13.73;10.80;;;19.10;76.90;;;;;;5454147;26;20537;-73
2024/04/11 09:53:41;;;;;;;4.13;2.80;;;19.10;76.80;;;;;;5453372;26;20589;-73
2024/04/11 09:56:10;;;;;;;5.10;3.37;;;19.20;77.30;;;;;;5454101;26;20826;-72
2024/04/11 09:58:42;;;;;;;5.27;2.63;;;19.20;76.60;;;;;;5453401;26;20471;-73
2024/04/11 10:01:29;;;;;;;7.30;4.33;;;19.30;75.90;;;;;;5454456;26;20468;-73
2024/04/11 10:04:04;;;;;;;4.20;2.33;;;19.40;75.50;;;;;;5453897;26;20550;-73
2024/04/11 10:06:35;;;;;;;2.80;1.60;;;19.40;75.30;;;;;;5453969;26;20534;-74
2024/04/11 10:09:17;;;;;;;3.60;2.90;;;19.40;72.80;;;;;;5453450;26;20578;-73
2024/04/11 10:11:45;;;;;;;4.43;3.90;;;19.40;73.00;;;;;;5453875;26;20602;-73
2024/04/11 10:14:20;;;;;;;5.50;1.97;;;19.40;73.30;;;;;;5453049;26;20471;-73
2024/04/11 10:16:48;;;;;;;3.80;2.07;;;19.40;72.20;;;;;;5453483;26;20487;-74
2024/04/11 10:19:31;;;;;;;2.50;2.10;;;19.40;72.30;;;;;;5453065;26;20585;-74
2024/04/11 10:22:04;;;;;;;4.27;1.83;;;19.40;72.60;;;;;;5453250;26;20824;-73
2024/04/11 10:24:37;;;;;;;3.40;2.10;;;19.40;71.40;;;;;;5453747;26;20546;-72
2024/04/11 10:27:09;;;;;;;3.80;2.60;;;19.40;71.50;;;;;;5453261;26;20859;-74
2024/04/11 10:29:43;;;;;;;2.93;1.47;;;19.40;71.60;;;;;;5453475;26;20555;-73
2024/04/11 10:32:13;;;;;;;2.83;2.20;;;19.40;71.60;;;;;;5453113;26;20467;-73
2024/04/11 10:34:48;;;;;;;2.67;2.33;;;19.40;72.70;;;;;;5453747;26;20483;-74
2024/04/11 10:37:23;;;;;;;2.17;1.50;;;19.40;72.70;;;;;;5453114;26;20466;-74
2024/04/11 10:39:54;;;;;;;4.63;3.10;;;19.50;72.80;;;;;;5453615;26;20533;-73
2024/04/11 10:42:29;;;;;;;4.50;3.50;;;19.50;72.90;;;;;;5452674;26;20622;-74
2024/04/11 10:44:59;;;;;;;3.70;2.33;;;19.50;72.80;;;;;;5453295;26;20474;-74
2024/04/11 10:47:26;;;;;;;3.53;2.70;;;19.50;72.50;;;;;;5453118;26;20468;-73
2024/04/11 10:49:59;;;;;;;4.40;2.43;;;19.50;72.50;;;;;;5453490;26;20466;-73
2024/04/11 10:52:24;;;;;;;6.67;2.07;;;19.40;71.90;;;;;;5452639;26;20932;-73
2024/04/11 10:55:12;;;;;;;3.40;2.93;;;19.40;71.80;;;;;;5453921;26;20582;-73
2024/04/11 10:57:41;;;;;;;4.37;2.00;;;19.40;71.90;;;;;;5454642;26;20623;-74
2024/04/11 11:00:22;;;;;;;2.80;1.70;;;19.30;71.90;;;;;;5454010;26;20471;-73
2024/04/11 11:02:49;;;;;;;2.77;1.50;;;19.20;71.70;;;;;;5453760;26;20895;-73
2024/04/11 11:05:20;;;;;;;4.80;1.67;;;19.10;70.80;;;;;;5453172;26;20527;-73
2024/04/11 11:07:48;;;;;;;2.80;1.60;;;19.20;71.10;;;;;;5453910;26;20521;-74
2024/04/11 11:10:18;;;;;;;4.13;1.53;;;19.10;70.30;;;;;;5454169;26;20487;-74
2024/04/11 11:12:44;;;;;;;4.30;2.20;;;19.00;69.90;;;;;;5453829;26;20471;-74
2024/04/11 11:15:14;;;;;;;2.40;1.83;;;19.00;69.50;;;;;;5454361;26;20471;-74
2024/04/11 11:17:39;;;;;;;2.97;2.73;;;19.00;70.10;;;;;;5453898;26;20475;-74
2024/04/11 11:20:13;;;;;;;4.50;2.50;;;19.00;69.90;;;;;;5453305;26;20564;-74
2024/04/11 11:22:43;;;;;;;3.37;1.80;;;18.90;70.60;;;;;;5453970;26;20486;-74
2024/04/11 11:25:12;;;;;;;4.77;2.57;;;18.90;69.70;;;;;;5453690;26;20967;-74
2024/04/11 11:27:38;;;;;;;4.40;2.70;;;18.90;70.80;;;;;;5453853;26;21103;-74
2024/04/11 11:30:15;;;;;;;2.37;1.90;;;18.90;71.10;;;;;;5453294;26;20474;-74
2024/04/11 11:32:43;;;;;;;3.03;2.03;;;18.90;71.10;;;;;;5453857;26;20478;-73
2024/04/11 11:35:12;;;;;;;6.80;3.17;;;18.80;71.90;;;;;;5453065;26;20478;-74
2024/04/11 11:37:38;;;;;;;4.83;2.33;;;18.90;72.10;;;;;;5453871;26;20614;-74
2024/04/11 11:42:52;;;;;;;3.70;2.23;;;19.10;71.40;;;;;;5452943;26;20842;-73
2024/04/11 11:45:26;;;;;;;2.70;2.10;;;19.10;70.40;;;;;;5453478;26;20528;-74
2024/04/11 11:47:57;;;;;;;3.10;1.77;;;19.20;70.30;;;;;;5452989;26;20470;-72
2024/04/11 11:50:33;;;;;;;7.10;2.47;;;19.20;70.00;;;;;;5453612;26;20570;-73
2024/04/11 11:53:24;;;;;;;3.57;3.27;;;19.20;70.10;;;;;;5453021;26;20478;-74
2024/04/11 11:55:57;;;;;;;4.03;3.00;;;19.20;69.90;;;;;;5452474;26;20491;-73
2024/04/11 11:58:29;;;;;;;5.60;2.10;;;19.30;70.50;;;;;;5453002;26;20535;-74
2024/04/11 12:00:59;;;;;;;4.60;2.53;;;19.30;69.60;;;;;;5452898;26;20470;-74
2024/04/11 12:03:31;;;;;;;7.73;4.30;;;19.40;69.60;;;;;;5453333;26;20525;-73
2024/04/11 12:05:58;;;;;;;6.10;3.17;;;19.40;69.70;;;;;;5452533;26;20526;-74
2024/04/11 12:08:27;;;;;;;3.67;3.03;;;19.40;69.20;;;;;;5453362;26;20887;-73
2024/04/11 12:13:42;;;;;;;3.63;1.87;;;19.50;68.80;;;;;;5453039;26;20483;-74
2024/04/11 12:16:13;;;;;;;5.17;2.23;;;19.40;67.70;;;;;;5454571;26;20975;-74
2024/04/11 12:18:41;;;;;;;2.50;1.80;;;19.30;68.40;;;;;;5456777;26;20475;-73
2024/04/11 12:21:13;;;;;;;4.10;3.70;;;19.40;69.10;;;;;;5456318;26;20493;-73
2024/04/11 12:23:43;;;;;;;4.33;2.20;;;19.40;69.60;;;;;;5456654;26;20470;-72
2024/04/11 12:26:12;;;;;;;4.23;2.57;;;19.40;69.60;;;;;;5456036;26;20458;-74
2024/04/11 12:28:45;;;;;;;2.30;1.60;;;19.40;69.50;;;;;;5456489;26;20479;-73
2024/04/11 12:31:15;;;;;;;3.30;1.40;;;19.40;69.00;;;;;;5456426;26;20952;-73
2024/04/11 12:33:46;;;;;;;5.30;2.87;;;19.30;69.30;;;;;;5456478;26;20945;-73
2024/04/11 12:39:03;;;;;;;1.63;1.53;;;19.40;70.20;;;;;;5455545;26;20474;-73
2024/04/11 12:41:36;;;;;;;3.27;2.17;;;19.50;69.20;;;;;;5456651;26;20482;-74
2024/04/11 12:44:02;;;;;;;3.40;1.77;;;19.50;69.30;;;;;;5455850;26;20475;-74
2024/04/11 12:46:31;;;;;;;3.80;1.87;;;19.60;69.20;;;;;;5456305;26;21094;-73
2024/04/11 12:49:00;;;;;;;3.00;1.40;;;19.60;69.10;;;;;;5455978;26;20466;-74
2024/04/11 12:51:30;;;;;;;2.90;2.00;;;19.70;69.10;;;;;;5456709;26;20479;-73
2024/04/11 12:53:56;;;;;;;3.93;2.20;;;19.70;69.10;;;;;;5455834;26;20523;-74
2024/04/11 12:56:25;;;;;;;3.93;2.20;;;19.70;69.10;;;;;;5456005;26;20487;-73
2024/04/11 12:59:05;;;;;;;2.27;1.70;;;19.70;69.20;;;;;;5456290;26;20533;-74
2024/04/11 13:01:36;;;;;;;1.67;1.43;;;19.80;69.90;;;;;;5456308;26;20486;-73
2024/04/11 13:04:08;;;;;;;2.13;1.57;;;19.80;70.00;;;;;;5455510;26;20470;-73
2024/04/11 13:06:48;;;;;;;2.17;1.80;;;19.90;69.90;;;;;;5455780;26;20537;-73
2024/04/11 13:09:18;;;;;;;3.57;2.63;;;19.90;69.50;;;;;;5456363;26;20494;-74